createdAt,value
2023-01-22T00:02:49.775Z,1.73
2023-01-22T00:07:49.656Z,1.73
2023-01-22T00:12:49.578Z,1.73
2023-01-22T00:17:49.532Z,1.70
2023-01-22T00:22:49.454Z,1.68
2023-01-22T00:27:49.389Z,1.70
2023-01-22T00:32:49.319Z,1.70
2023-01-22T00:37:49.270Z,1.67
2023-01-22T00:42:49.186Z,1.68
2023-01-22T00:47:49.153Z,1.68
2023-01-22T00:52:49.058Z,1.68
2023-01-22T00:57:49.010Z,1.68
2023-01-22T01:02:48.927Z,1.67
2023-01-22T01:07:48.881Z,1.68
2023-01-22T01:12:48.796Z,1.68
2023-01-22T01:17:48.740Z,1.68
2023-01-22T01:22:48.676Z,1.67
2023-01-22T01:27:48.610Z,1.63
2023-01-22T01:32:48.545Z,1.62
2023-01-22T01:37:48.489Z,1.63
2023-01-22T01:42:48.414Z,1.63
2023-01-22T01:47:48.351Z,1.63
2023-01-22T01:52:48.285Z,1.67
2023-01-22T01:57:48.232Z,1.63
2023-01-22T02:02:48.145Z,1.62
2023-01-22T02:07:48.099Z,1.60
2023-01-22T02:12:48.014Z,1.62
2023-01-22T02:17:47.958Z,1.62
2023-01-22T02:22:47.886Z,1.62
2023-01-22T02:27:47.837Z,1.60
2023-01-22T02:32:47.753Z,1.58
2023-01-22T02:37:47.695Z,1.59
2023-01-22T02:42:47.638Z,1.60
2023-01-22T02:47:47.570Z,1.62
2023-01-22T02:52:47.503Z,1.63
2023-01-22T02:57:47.433Z,1.63
2023-01-22T03:02:47.376Z,1.62
2023-01-22T03:07:47.302Z,1.62
2023-01-22T03:12:47.241Z,1.60
2023-01-22T03:17:47.280Z,1.63
2023-01-22T03:22:47.101Z,1.62
2023-01-22T03:27:47.044Z,1.63
2023-01-22T03:32:46.974Z,1.63
2023-01-22T03:37:46.915Z,1.63
2023-01-22T03:42:46.840Z,1.63
2023-01-22T03:47:46.785Z,1.66
2023-01-22T03:52:46.710Z,1.66
2023-01-22T03:57:46.652Z,1.67
2023-01-22T04:02:46.586Z,1.67
2023-01-22T04:07:46.502Z,1.67
2023-01-22T04:12:46.453Z,1.68
2023-01-22T04:17:46.375Z,1.66
2023-01-22T04:22:46.323Z,1.70
2023-01-22T04:27:46.239Z,1.66
2023-01-22T04:32:46.195Z,1.67
2023-01-22T04:37:46.108Z,1.63
2023-01-22T04:42:46.057Z,1.66
2023-01-22T04:47:45.980Z,1.67
2023-01-22T04:52:45.925Z,1.68
2023-01-22T04:57:45.849Z,1.67
2023-01-22T05:02:45.866Z,1.67
2023-01-22T05:07:45.727Z,1.63
2023-01-22T05:12:45.670Z,1.63
2023-01-22T05:17:45.597Z,1.68
2023-01-22T05:22:45.573Z,1.67
2023-01-22T05:27:45.468Z,1.68
2023-01-22T05:32:45.423Z,1.67
2023-01-22T05:37:45.336Z,1.66
2023-01-22T05:42:45.291Z,1.66
2023-01-22T05:47:45.205Z,1.66
2023-01-22T05:52:45.159Z,1.67
2023-01-22T05:57:45.076Z,1.67
2023-01-22T06:02:45.110Z,1.68
2023-01-22T06:07:44.949Z,1.67
2023-01-22T06:12:44.888Z,1.68
2023-01-22T06:17:44.816Z,1.70
2023-01-22T06:22:44.757Z,1.66
2023-01-22T06:27:44.686Z,1.68
2023-01-22T06:32:44.627Z,1.66
2023-01-22T06:37:44.554Z,1.67
2023-01-22T06:42:44.494Z,1.68
2023-01-22T06:47:44.424Z,1.68
2023-01-22T06:52:44.366Z,1.70
2023-01-22T06:57:44.294Z,1.71
2023-01-22T07:02:44.235Z,1.71
2023-01-22T07:07:44.164Z,1.70
2023-01-22T07:12:44.108Z,1.70
2023-01-22T07:17:44.045Z,1.67
2023-01-22T07:22:43.976Z,1.71
2023-01-22T07:27:43.953Z,1.70
2023-01-22T07:32:43.847Z,1.73
2023-01-22T07:37:43.782Z,1.74
2023-01-22T07:42:43.713Z,1.76
2023-01-22T07:47:43.652Z,1.76
2023-01-22T07:52:43.584Z,1.77
2023-01-22T07:57:43.509Z,1.77
2023-01-22T08:02:43.454Z,1.78
2023-01-22T08:07:43.379Z,1.80
2023-01-22T08:12:45.900Z,1.84
2023-01-22T08:17:43.248Z,1.84
2023-01-22T08:22:43.191Z,1.88
2023-01-22T08:27:43.118Z,1.99
2023-01-22T08:32:43.063Z,1.92
2023-01-22T08:37:42.999Z,1.92
2023-01-22T08:42:42.932Z,1.91
2023-01-22T08:47:42.867Z,1.94
2023-01-22T08:52:42.796Z,1.99
2023-01-22T08:57:42.744Z,1.96
2023-01-22T09:02:42.667Z,1.98
2023-01-22T09:07:42.607Z,1.92
2023-01-22T09:12:42.535Z,1.94
2023-01-22T09:17:42.485Z,1.98
2023-01-22T09:22:42.399Z,1.98
2023-01-22T09:27:42.357Z,1.99
2023-01-22T09:32:42.269Z,2.06
2023-01-22T09:37:42.231Z,2.06
2023-01-22T09:42:42.138Z,2.06
2023-01-22T09:47:42.091Z,2.03
2023-01-22T09:52:42.008Z,2.01
2023-01-22T09:57:41.961Z,1.99
2023-01-22T10:02:41.960Z,2.03
2023-01-22T10:07:41.818Z,2.06
2023-01-22T10:12:41.748Z,2.05
2023-01-22T10:17:41.692Z,2.09
2023-01-22T10:22:41.619Z,2.13
2023-01-22T10:27:41.582Z,2.13
2023-01-22T10:32:41.497Z,2.13
2023-01-22T10:37:41.443Z,2.17
2023-01-22T10:42:41.361Z,2.10
2023-01-22T10:47:41.326Z,2.12
2023-01-22T10:52:41.248Z,2.19
2023-01-22T10:57:41.188Z,2.24
2023-01-22T11:02:41.178Z,2.27
2023-01-22T11:07:41.067Z,2.28
2023-01-22T11:12:40.978Z,2.31
2023-01-22T11:17:40.930Z,2.28
2023-01-22T11:22:40.857Z,2.32
2023-01-22T11:27:40.814Z,2.32
2023-01-22T11:32:40.721Z,2.34
2023-01-22T11:37:40.673Z,2.25
2023-01-22T11:42:40.594Z,2.23
2023-01-22T11:47:40.539Z,2.19
2023-01-22T11:52:40.464Z,2.16
2023-01-22T11:57:40.403Z,2.12
2023-01-22T12:02:40.435Z,2.10
2023-01-22T12:07:40.273Z,2.07
2023-01-22T12:12:40.202Z,2.05
2023-01-22T12:17:40.143Z,2.03
2023-01-22T12:22:40.079Z,2.05
2023-01-22T12:27:40.015Z,2.03
2023-01-22T12:32:39.942Z,2.05
2023-01-22T12:37:39.884Z,2.06
2023-01-22T12:42:39.821Z,2.07
2023-01-22T12:47:39.755Z,2.14
2023-01-22T12:52:39.700Z,2.19
2023-01-22T12:57:39.623Z,2.19
2023-01-22T13:02:39.565Z,2.25
2023-01-22T13:07:39.493Z,2.31
2023-01-22T13:12:39.431Z,2.34
2023-01-22T13:17:39.366Z,2.37
2023-01-22T13:22:39.292Z,2.41
2023-01-22T13:27:39.230Z,2.46
2023-01-22T13:32:39.175Z,2.35
2023-01-22T13:37:39.124Z,2.43
2023-01-22T13:42:39.034Z,2.46
2023-01-22T13:47:38.976Z,2.46
2023-01-22T13:52:38.905Z,2.41
2023-01-22T13:57:38.848Z,2.38
2023-01-22T14:02:38.788Z,2.41
2023-01-22T14:07:38.718Z,2.38
2023-01-22T14:12:38.689Z,2.43
2023-01-22T14:17:38.590Z,2.50
2023-01-22T14:22:38.538Z,2.95
2023-01-22T14:27:38.478Z,2.82
2023-01-22T14:32:38.397Z,2.59
2023-01-22T14:37:38.333Z,2.50
2023-01-22T14:42:38.273Z,2.48
2023-01-22T14:47:38.205Z,2.42
2023-01-22T14:52:38.139Z,2.32
2023-01-22T14:57:38.078Z,2.32
2023-01-22T15:02:38.009Z,2.34
2023-01-22T15:07:37.968Z,2.25
2023-01-22T15:12:37.882Z,2.28
2023-01-22T15:17:37.813Z,2.28
2023-01-22T15:22:37.797Z,2.28
2023-01-22T15:27:37.741Z,2.28
2023-01-22T15:32:37.712Z,2.30
2023-01-22T15:37:37.752Z,2.28
2023-01-22T15:42:37.734Z,2.27
2023-01-22T15:47:37.877Z,2.27
2023-01-22T15:52:37.853Z,2.24
2023-01-22T15:57:37.849Z,2.17
2023-01-22T16:02:37.281Z,2.16
2023-01-22T16:07:37.177Z,2.17
2023-01-22T16:12:37.109Z,2.19
2023-01-22T16:17:37.046Z,2.17
2023-01-22T16:22:36.978Z,2.17
2023-01-22T16:27:36.913Z,2.13
2023-01-22T16:32:36.851Z,2.12
2023-01-22T16:37:36.781Z,2.10
2023-01-22T16:42:36.712Z,2.06
2023-01-22T16:47:36.649Z,2.13
2023-01-22T16:52:36.577Z,2.09
2023-01-22T16:57:36.521Z,2.09
2023-01-22T17:02:36.482Z,2.09
2023-01-22T17:07:36.387Z,2.10
2023-01-22T17:12:36.323Z,2.09
2023-01-22T17:17:36.258Z,2.07
2023-01-22T17:22:36.201Z,2.07
2023-01-22T17:27:36.145Z,2.12
2023-01-22T17:32:36.057Z,2.12
2023-01-22T17:37:35.998Z,2.12
2023-01-22T17:42:35.926Z,2.09
2023-01-22T17:47:35.868Z,2.10
2023-01-22T17:52:35.799Z,2.10
2023-01-22T17:57:35.750Z,2.13
2023-01-22T18:02:35.691Z,2.12
2023-01-22T18:07:35.622Z,2.12
2023-01-22T18:12:35.537Z,2.13
2023-01-22T18:17:35.491Z,2.10
2023-01-22T18:22:35.406Z,2.13
2023-01-22T18:27:35.361Z,2.14
2023-01-22T18:32:35.277Z,2.10
2023-01-22T18:37:36.871Z,2.12
2023-01-22T18:42:35.148Z,2.10
2023-01-22T18:47:35.090Z,2.09
2023-01-22T18:52:35.018Z,2.09
2023-01-22T18:57:34.959Z,2.09
2023-01-22T19:02:34.958Z,2.05
2023-01-22T19:07:34.849Z,2.05
2023-01-22T19:12:34.757Z,2.07
2023-01-22T19:17:34.711Z,2.03
2023-01-22T19:22:34.632Z,2.03
2023-01-22T19:27:34.580Z,2.06
2023-01-22T19:32:34.507Z,2.06
2023-01-22T19:37:34.475Z,2.07
2023-01-22T19:42:34.365Z,2.01
2023-01-22T19:47:34.330Z,1.98
2023-01-22T19:52:34.236Z,1.99
2023-01-22T19:57:34.178Z,1.99
2023-01-22T20:02:34.109Z,1.96
2023-01-22T20:07:34.047Z,1.94
2023-01-22T20:12:33.976Z,1.96
2023-01-22T20:17:33.918Z,1.95
2023-01-22T20:22:33.845Z,1.92
2023-01-22T20:27:33.789Z,1.95
2023-01-22T20:32:33.716Z,1.99
2023-01-22T20:37:33.667Z,2.05
2023-01-22T20:42:33.587Z,2.06
2023-01-22T20:47:33.542Z,2.06
2023-01-22T20:52:33.464Z,2.06
2023-01-22T20:57:33.424Z,2.03
2023-01-22T21:02:33.325Z,2.05
2023-01-22T21:07:33.278Z,2.03
2023-01-22T21:12:33.207Z,2.03
2023-01-22T21:17:33.139Z,2.05
2023-01-22T21:22:33.080Z,1.94
2023-01-22T21:27:33.017Z,1.91
2023-01-22T21:32:32.940Z,1.89
2023-01-22T21:37:32.881Z,1.85
2023-01-22T21:42:32.810Z,1.81
2023-01-22T21:47:32.751Z,1.81
2023-01-22T21:52:32.675Z,1.85
2023-01-22T21:57:32.629Z,1.84
2023-01-22T22:02:32.615Z,1.81
2023-01-22T22:07:32.499Z,1.81
2023-01-22T22:12:32.440Z,1.81
2023-01-22T22:17:32.367Z,1.80
2023-01-22T22:22:32.289Z,1.81
2023-01-22T22:27:32.235Z,1.77
2023-01-22T22:32:32.154Z,1.77
2023-01-22T22:37:32.099Z,1.78
2023-01-22T22:42:32.049Z,1.76
2023-01-22T22:47:31.967Z,1.77
2023-01-22T22:52:31.908Z,1.76
2023-01-22T22:57:31.835Z,1.77
2023-01-22T23:02:31.781Z,1.84
2023-01-22T23:07:31.707Z,1.81
2023-01-22T23:12:31.647Z,1.87
2023-01-22T23:17:31.575Z,1.84
2023-01-22T23:22:31.544Z,1.81
2023-01-22T23:27:31.447Z,1.84
2023-01-22T23:32:31.372Z,1.81
2023-01-22T23:37:31.316Z,1.76
2023-01-22T23:42:31.241Z,1.77
2023-01-22T23:47:31.223Z,1.80
2023-01-22T23:52:31.113Z,1.77
2023-01-22T23:57:31.061Z,1.78
